Time;durP1;ratioP1;P1;durP2;ratioP2;P2;SDS_P1;SDS_P2;PMS_P1;PMS_P2;Temp;Humidity;BMP_temperature;BMP_pressure;BME280_temperature;BME280_humidity;BME280_pressure;Samples;Min_cycle;Max_cycle;Signal;HPM_P1;HPM_P2
2022/09/07 00:00:50;;;;;;;;;;;;;;;18.51;43.51;152305.66;1695336;83;20139;-67
2022/09/07 00:03:18;;;;;;;;;;;;;;;18.45;43.41;152289.97;1695791;84;20186;-66
2022/09/07 00:05:46;;;;;;;;;;;;;;;18.33;43.81;152259.97;1693889;83;20934;-66
2022/09/07 00:08:13;;;;;;;;;;;;;;;18.25;44.10;152240.44;1691529;84;20122;-67
2022/09/07 00:10:50;;;;;;;;;;;;;;;18.30;43.76;152253.47;1691111;84;22091;-59
2022/09/07 00:13:17;;;;;;;;;;;;;;;18.38;43.64;152271.72;1694126;84;20195;-58
2022/09/07 00:15:44;;;;;;;;;;;;;;;18.31;42.62;152256.08;1696998;83;20471;-60
2022/09/07 00:18:11;;;;;;;;;;;;;;;18.30;42.99;152253.47;1696848;84;20183;-58
2022/09/07 00:20:38;;;;;;;;;;;;;;;18.35;42.85;152265.22;1696914;83;20206;-58
2022/09/07 00:23:05;;;;;;;;;;;;;;;18.39;42.73;152275.66;1697029;83;21081;-59
2022/09/07 00:25:34;;;;;;;;;;;;;;;18.38;42.07;152273.05;1696673;83;20227;-59
2022/09/07 00:28:02;;;;;;;;;;;;;;;18.32;41.55;152258.69;1691154;84;20190;-58
2022/09/07 00:30:28;;;;;;;;;;;;;;;18.32;41.31;152258.69;1696860;84;20176;-59
2022/09/07 00:32:55;;;;;;;;;;;;;;;18.27;41.60;152245.66;1696923;84;20143;-59
2022/09/07 00:35:22;;;;;;;;;;;;;;;18.23;41.90;152233.89;1696951;83;21121;-60
2022/09/07 00:37:49;;;;;;;;;;;;;;;18.12;42.47;152206.50;1696834;83;20167;-58
2022/09/07 00:40:16;;;;;;;;;;;;;;;18.12;42.96;152206.50;1696940;83;20175;-58
2022/09/07 00:42:43;;;;;;;;;;;;;;;18.06;43.03;152190.86;1696880;83;20199;-58
2022/09/07 00:45:20;;;;;;;;;;;;;;;18.06;43.45;152190.86;1696935;84;20464;-58
2022/09/07 00:48:02;;;;;;;;;;;;;;;18.12;43.32;152207.78;1696939;83;21222;-58
2022/09/07 00:50:33;;;;;;;;;;;;;;;18.03;43.30;152184.31;1696607;83;20218;-59
2022/09/07 00:53:06;;;;;;;;;;;;;;;17.98;43.72;152171.23;1696833;84;20202;-59
2022/09/07 00:55:33;;;;;;;;;;;;;;;17.98;43.89;152172.52;1695921;84;20234;-59
2022/09/07 00:58:00;;;;;;;;;;;;;;;17.98;43.45;152172.52;1706456;83;20142;-67
2022/09/07 01:00:27;;;;;;;;;;;;;;;18.01;43.16;152180.39;1712503;83;21142;-67
2022/09/07 01:02:54;;;;;;;;;;;;;;;18.02;43.24;152183.03;1712612;83;20412;-67
2022/09/07 01:05:24;;;;;;;;;;;;;;;18.06;43.65;152190.86;1714510;82;20186;-58
2022/09/07 01:07:55;;;;;;;;;;;;;;;18.01;43.92;152180.39;1711538;83;20929;-59
2022/09/07 01:10:22;;;;;;;;;;;;;;;17.92;43.85;152155.59;1711260;83;20471;-67
2022/09/07 01:12:49;;;;;;;;;;;;;;;17.81;43.65;152128.22;1712391;83;21253;-66
2022/09/07 01:15:16;;;;;;;;;;;;;;;17.88;43.83;152147.73;1714476;83;20193;-67
2022/09/07 01:17:52;;;;;;;;;;;;;;;18.01;43.50;152180.39;1714327;83;20213;-67
2022/09/07 01:20:29;;;;;;;;;;;;;;;18.06;43.91;152192.14;1713809;83;20486;-59
2022/09/07 01:23:08;;;;;;;;;;;;;;;17.99;44.42;152173.84;1714413;83;20139;-59
2022/09/07 01:25:42;;;;;;;;;;;;;;;18.11;44.51;152205.17;1714419;83;21095;-67
2022/09/07 01:28:20;;;;;;;;;;;;;;;18.17;44.45;152219.53;1714783;83;20193;-67
2022/09/07 01:30:57;;;;;;;;;;;;;;;18.32;43.89;152258.69;1714192;83;20142;-66
2022/09/07 01:33:28;;;;;;;;;;;;;;;18.47;43.77;152296.52;1714398;83;20216;-66
2022/09/07 01:36:10;;;;;;;;;;;;;;;18.55;43.40;152316.09;1714394;83;20174;-66
2022/09/07 01:38:55;;;;;;;;;;;;;;;18.47;43.64;152296.52;1714318;83;21254;-66
2022/09/07 01:41:25;;;;;;;;;;;;;;;18.30;43.53;152253.47;1714258;83;20533;-67
2022/09/07 01:44:04;;;;;;;;;;;;;;;18.10;44.24;152201.28;1714383;83;20138;-67
2022/09/07 01:46:36;;;;;;;;;;;;;;;18.11;43.98;152203.89;1714370;83;20174;-67
2022/09/07 01:49:13;;;;;;;;;;;;;;;18.06;44.17;152192.14;1714424;83;20189;-65
2022/09/07 01:51:42;;;;;;;;;;;;;;;18.07;44.46;152193.47;1714391;83;21978;-66
2022/09/07 01:54:12;;;;;;;;;;;;;;;18.14;44.82;152211.72;1714569;83;20446;-66
2022/09/07 01:56:41;;;;;;;;;;;;;;;18.12;44.77;152206.50;1714544;83;33511;-66
2022/09/07 01:59:18;;;;;;;;;;;;;;;18.13;43.85;152209.11;1695482;83;20929;-66
2022/09/07 02:01:50;;;;;;;;;;;;;;;18.10;43.10;152201.28;1676262;85;20208;-66
2022/09/07 02:04:39;;;;;;;;;;;;;;;18.10;43.55;152201.28;1699161;83;21205;-66
2022/09/07 02:07:09;;;;;;;;;;;;;;;18.17;42.30;152219.53;1671757;85;20208;-66
2022/09/07 02:09:52;;;;;;;;;;;;;;;18.19;41.66;152224.75;1722125;83;20180;-67
2022/09/07 02:12:23;;;;;;;;;;;;;;;18.11;42.92;152205.17;1674158;85;20193;-66
2022/09/07 02:14:54;;;;;;;;;;;;;;;17.93;44.05;152159.48;1692461;84;20445;-67
2022/09/07 02:17:23;;;;;;;;;;;;;;;17.76;44.61;152117.73;1704982;84;21244;-67
2022/09/07 02:19:58;;;;;;;;;;;;;;;17.66;44.41;152091.69;1704953;84;20277;-67
2022/09/07 02:22:26;;;;;;;;;;;;;;;17.63;44.72;152083.86;1704881;84;20181;-67
2022/09/07 02:24:57;;;;;;;;;;;;;;;17.55;44.42;152064.30;1705455;83;20137;-67
2022/09/07 02:27:27;;;;;;;;;;;;;;;17.52;45.15;152055.16;1704926;84;20206;-67
2022/09/07 02:29:55;;;;;;;;;;;;;;;17.55;45.16;152062.97;1705315;84;21154;-67
2022/09/07 02:32:21;;;;;;;;;;;;;;;17.59;45.33;152074.72;1705078;84;20186;-67
2022/09/07 02:34:48;;;;;;;;;;;;;;;17.65;45.13;152089.06;1705156;84;20202;-67
2022/09/07 02:37:15;;;;;;;;;;;;;;;17.79;44.89;152122.95;1705340;84;20171;-67
2022/09/07 02:39:42;;;;;;;;;;;;;;;18.01;44.65;152180.39;1705075;84;20194;-60
2022/09/07 02:42:09;;;;;;;;;;;;;;;18.18;44.10;152222.14;1705057;84;21310;-59
2022/09/07 02:44:36;;;;;;;;;;;;;;;18.23;43.72;152235.17;1704974;84;20226;-59
2022/09/07 02:47:31;;;;;;;;;;;;;;;18.22;43.47;152232.56;1705403;83;20182;-57
2022/09/07 02:50:16;;;;;;;;;;;;;;;18.08;42.96;152196.08;1705105;84;20189;-59
2022/09/07 02:52:59;;;;;;;;;;;;;;;18.06;43.44;152190.86;1704889;84;20466;-59
2022/09/07 02:55:36;;;;;;;;;;;;;;;18.11;43.99;152203.89;1705156;84;21307;-59
2022/09/07 02:58:15;;;;;;;;;;;;;;;18.06;43.68;152190.86;1703123;83;20186;-59
2022/09/07 03:00:45;;;;;;;;;;;;;;;18.08;43.79;152196.08;1699929;84;20484;-59
2022/09/07 03:03:16;;;;;;;;;;;;;;;17.96;43.66;152167.31;1699959;84;20444;-59
2022/09/07 03:05:49;;;;;;;;;;;;;;;17.93;43.39;152159.48;1697536;84;20179;-59
2022/09/07 03:08:22;;;;;;;;;;;;;;;17.94;43.41;152162.09;1693546;84;21253;-59
2022/09/07 03:10:49;;;;;;;;;;;;;;;17.92;43.70;152155.59;1693161;84;20735;-59
2022/09/07 03:13:22;;;;;;;;;;;;;;;17.86;43.85;152141.25;1697201;84;20178;-59
2022/09/07 03:15:49;;;;;;;;;;;;;;;17.83;44.18;152133.42;1700391;84;20350;-59
2022/09/07 03:18:16;;;;;;;;;;;;;;;17.96;44.67;152167.31;1701383;84;20195;-59
2022/09/07 03:20:43;;;;;;;;;;;;;;;18.06;44.61;152190.86;1701392;84;21230;-59
2022/09/07 03:23:10;;;;;;;;;;;;;;;18.09;44.34;152199.95;1701404;84;20190;-59
2022/09/07 03:25:38;;;;;;;;;;;;;;;18.18;44.13;152223.47;1701493;84;20171;-66
2022/09/07 03:28:04;;;;;;;;;;;;;;;18.33;43.85;152261.28;1701598;84;20182;-67
2022/09/07 03:30:32;;;;;;;;;;;;;;;18.36;43.34;152267.84;1701473;84;20182;-67
2022/09/07 03:32:59;;;;;;;;;;;;;;;18.32;43.56;152257.36;1701541;84;21252;-66
2022/09/07 03:35:26;;;;;;;;;;;;;;;18.26;44.16;152243.03;1701529;84;20186;-67
2022/09/07 03:37:53;;;;;;;;;;;;;;;18.33;45.16;152259.97;1701433;84;20142;-66
2022/09/07 03:40:20;;;;;;;;;;;;;;;18.44;45.36;152287.36;1701483;84;20225;-67
2022/09/07 03:42:49;;;;;;;;;;;;;;;18.25;45.60;152239.11;1701544;84;20209;-67
2022/09/07 03:45:16;;;;;;;;;;;;;;;18.07;46.17;152194.75;1701611;84;21146;-68
2022/09/07 03:47:43;;;;;;;;;;;;;;;17.88;46.67;152146.45;1701529;84;20320;-66
2022/09/07 03:50:10;;;;;;;;;;;;;;;17.67;47.22;152092.95;1701639;84;20482;-66
2022/09/07 03:52:37;;;;;;;;;;;;;;;17.60;47.76;152077.31;1701296;84;20117;-66
2022/09/07 03:55:04;;;;;;;;;;;;;;;17.54;47.57;152060.36;1701596;84;20186;-67
2022/09/07 03:57:31;;;;;;;;;;;;;;;17.37;47.84;152017.34;1701495;84;21130;-68
2022/09/07 03:59:58;;;;;;;;;;;;;;;17.24;48.78;151984.75;1701517;84;20155;-67
2022/09/07 04:02:24;;;;;;;;;;;;;;;17.07;49.28;151941.75;1701449;84;20189;-66
2022/09/07 04:04:51;;;;;;;;;;;;;;;16.87;49.85;151893.44;1702913;83;20206;-67
2022/09/07 04:07:20;;;;;;;;;;;;;;;16.87;49.74;151893.44;1673678;85;20156;-66
2022/09/07 04:09:50;;;;;;;;;;;;;;;16.94;50.32;151909.13;1673336;85;21235;-68
2022/09/07 04:12:16;;;;;;;;;;;;;;;17.26;49.90;151989.97;1673127;85;20517;-66
2022/09/07 04:14:45;;;;;;;;;;;;;;;17.60;49.56;152076.05;1665018;86;20148;-68
2022/09/07 04:17:11;;;;;;;;;;;;;;;17.99;49.31;152173.84;1665424;86;20573;-66
2022/09/07 04:19:38;;;;;;;;;;;;;;;18.27;48.89;152245.66;1665370;85;20468;-67
2022/09/07 04:22:05;;;;;;;;;;;;;;;18.50;48.65;152301.72;1650638;87;21263;-66
2022/09/07 04:24:33;;;;;;;;;;;;;;;18.69;48.25;152351.31;1674317;85;20181;-68
2022/09/07 04:27:01;;;;;;;;;;;;;;;18.86;47.70;152393.09;1674592;85;20157;-66
2022/09/07 04:29:27;;;;;;;;;;;;;;;19.02;47.35;152434.92;1674371;85;20184;-66
2022/09/07 04:31:54;;;;;;;;;;;;;;;19.23;47.02;152487.13;1674562;85;20147;-67
2022/09/07 04:34:21;;;;;;;;;;;;;;;19.45;46.36;152543.25;1674501;85;21238;-67
2022/09/07 04:36:48;;;;;;;;;;;;;;;19.55;44.88;152568.05;1674478;85;20173;-66
2022/09/07 04:39:15;;;;;;;;;;;;;;;19.55;43.80;152566.72;1674586;85;20483;-67
2022/09/07 04:41:42;;;;;;;;;;;;;;;19.51;44.00;152557.62;1674329;85;20177;-68
2022/09/07 04:44:09;;;;;;;;;;;;;;;19.73;43.50;152613.73;1674371;85;20197;-60
2022/09/07 04:46:35;;;;;;;;;;;;;;;19.82;42.26;152634.66;1674425;85;21121;-59
2022/09/07 04:49:04;;;;;;;;;;;;;;;19.69;41.93;152602.02;1674463;85;20173;-59
2022/09/07 04:54:18;;;;;;;;;;;;;;;19.88;42.14;152650.31;1697249;84;20203;-60
2022/09/07 04:56:45;;;;;;;;;;;;;;;19.92;42.13;152660.81;1697570;84;20182;-60
2022/09/07 04:59:12;;;;;;;;;;;;;;;20.05;41.55;152693.45;1697484;84;21214;-60
2022/09/07 05:01:38;;;;;;;;;;;;;;;20.24;41.16;152740.48;1697325;84;20178;-59
2022/09/07 05:04:05;;;;;;;;;;;;;;;20.33;40.21;152765.30;1697452;84;20435;-59
2022/09/07 05:06:33;;;;;;;;;;;;;;;20.29;39.98;152753.53;1707383;83;20171;-59
2022/09/07 05:09:00;;;;;;;;;;;;;;;20.28;40.27;152750.92;1712156;83;20623;-59
2022/09/07 05:11:27;;;;;;;;;;;;;;;20.37;40.14;152773.14;1712093;83;21861;-59
2022/09/07 05:13:56;;;;;;;;;;;;;;;20.46;40.37;152796.67;1689210;83;20515;-58
2022/09/07 05:16:24;;;;;;;;;;;;;;;20.69;40.24;152854.16;1681950;85;20183;-59
2022/09/07 05:18:51;;;;;;;;;;;;;;;20.80;39.55;152882.94;1682016;84;20179;-59
2022/09/07 05:21:20;;;;;;;;;;;;;;;20.72;40.08;152863.28;1682005;85;20172;-60
2022/09/07 05:23:51;;;;;;;;;;;;;;;20.89;40.13;152906.48;1681961;84;21278;-59
2022/09/07 05:26:18;;;;;;;;;;;;;;;21.11;40.09;152961.38;1682311;84;20443;-60
2022/09/07 05:28:45;;;;;;;;;;;;;;;21.24;39.75;152992.72;1681941;84;20199;-60
2022/09/07 05:31:15;;;;;;;;;;;;;;;21.25;39.66;152995.33;1681975;85;20224;-60
2022/09/07 05:33:49;;;;;;;;;;;;;;;21.28;39.36;153004.50;1682315;85;20151;-60
2022/09/07 05:36:17;;;;;;;;;;;;;;;21.33;39.17;153016.22;1682325;85;21247;-59
2022/09/07 05:38:43;;;;;;;;;;;;;;;21.54;39.22;153069.84;1681913;84;20175;-60
2022/09/07 05:41:13;;;;;;;;;;;;;;;21.64;38.45;153093.34;1681924;84;20216;-59
2022/09/07 05:43:40;;;;;;;;;;;;;;;21.56;38.34;153075.06;1682124;84;20183;-58
2022/09/07 05:46:07;;;;;;;;;;;;;;;21.57;38.85;153076.39;1684991;83;20177;-59
2022/09/07 05:48:34;;;;;;;;;;;;;;;21.66;38.87;153098.63;1692595;83;21135;-59
2022/09/07 05:51:01;;;;;;;;;;;;;;;21.67;38.88;153101.28;1696388;84;20217;-59
2022/09/07 05:53:28;;;;;;;;;;;;;;;21.75;38.99;153122.19;1695243;84;20183;-67
2022/09/07 05:55:59;;;;;;;;;;;;;;;21.80;38.94;153133.97;1692306;84;20210;-67
2022/09/07 05:58:26;;;;;;;;;;;;;;;21.77;39.48;153126.08;1689910;84;20145;-66
2022/09/07 06:01:05;;;;;;;;;;;;;;;21.95;39.72;153173.16;1693070;83;21235;-59
2022/09/07 06:03:34;;;;;;;;;;;;;;;22.28;38.97;153255.55;1694338;84;20206;-59
2022/09/07 06:06:05;;;;;;;;;;;;;;;22.74;38.60;153372.03;1693064;83;20152;-66
2022/09/07 06:08:33;;;;;;;;;;;;;;;23.56;37.60;153578.86;1694781;83;20521;-67
2022/09/07 06:11:07;;;;;;;;;;;;;;;24.58;36.18;153838.11;1693531;83;20179;-60
2022/09/07 06:13:35;;;;;;;;;;;;;;;25.23;34.33;154001.94;1697040;83;21124;-60
2022/09/07 06:16:05;;;;;;;;;;;;;;;25.59;33.73;154092.38;1691866;84;20148;-59
2022/09/07 06:18:35;;;;;;;;;;;;;;;25.95;33.01;154184.09;1690763;83;20202;-61
2022/09/07 06:21:04;;;;;;;;;;;;;;;26.15;32.44;154233.91;1691822;83;21019;-59
2022/09/07 06:23:32;;;;;;;;;;;;;;;26.31;32.06;154275.91;1694431;83;20498;-60
2022/09/07 06:25:59;;;;;;;;;;;;;;;26.14;31.52;154231.28;1691389;83;22011;-59
2022/09/07 06:28:36;;;;;;;;;;;;;;;25.80;32.13;154144.80;1701279;83;20222;-67
2022/09/07 06:31:07;;;;;;;;;;;;;;;25.31;32.92;154021.53;1693874;83;20160;-60
2022/09/07 06:33:34;;;;;;;;;;;;;;;24.92;33.01;153922.02;1696032;83;20490;-60
2022/09/07 06:36:03;;;;;;;;;;;;;;;24.49;33.14;153814.56;1690100;84;20224;-60
2022/09/07 06:38:32;;;;;;;;;;;;;;;23.96;33.82;153679.64;1692677;84;21205;-60
2022/09/07 06:41:10;;;;;;;;;;;;;;;23.62;34.64;153594.55;1691592;84;20569;-67
2022/09/07 06:43:37;;;;;;;;;;;;;;;23.49;35.11;153560.50;1695377;83;20205;-67
2022/09/07 06:46:04;;;;;;;;;;;;;;;23.45;35.65;153552.66;1681077;84;20643;-60
2022/09/07 06:48:31;;;;;;;;;;;;;;;23.57;35.57;153581.47;1677727;84;20623;-66
2022/09/07 06:51:06;;;;;;;;;;;;;;;23.73;35.23;153622.03;1685285;84;21140;-59
2022/09/07 06:53:34;;;;;;;;;;;;;;;23.70;35.34;153614.19;1668914;84;20478;-66
2022/09/07 06:56:07;;;;;;;;;;;;;;;23.66;35.42;153605.02;1635836;86;20240;-67
2022/09/07 06:58:34;;;;;;;;;;;;;;;23.77;35.41;153632.50;1689025;84;20431;-68
2022/09/07 07:01:08;;;;;;;;;;;;;;;23.69;35.31;153612.86;1687347;84;20152;-68
2022/09/07 07:03:35;;;;;;;;;;;;;;;23.48;34.99;153557.88;1693892;83;21120;-67
2022/09/07 07:06:04;;;;;;;;;;;;;;;23.26;35.04;153502.91;1694811;83;20401;-68
2022/09/07 07:08:31;;;;;;;;;;;;;;;23.17;35.41;153481.94;1688235;83;20194;-68
2022/09/07 07:11:07;;;;;;;;;;;;;;;23.17;35.21;153480.63;1694639;83;20207;-67
2022/09/07 07:13:34;;;;;;;;;;;;;;;23.11;35.81;153466.25;1640223;86;20207;-67
2022/09/07 07:16:13;;;;;;;;;;;;;;;23.00;35.54;153437.44;1690561;83;21131;-67
2022/09/07 07:18:40;;;;;;;;;;;;;;;22.84;35.39;153398.19;1690537;83;20175;-60
2022/09/07 07:21:10;;;;;;;;;;;;;;;22.85;35.40;153399.50;1690611;84;20171;-59
2022/09/07 07:23:37;;;;;;;;;;;;;;;22.87;35.53;153406.02;1689521;84;21142;-58
2022/09/07 07:26:07;;;;;;;;;;;;;;;22.80;35.68;153387.72;1691443;84;20183;-62
2022/09/07 07:28:35;;;;;;;;;;;;;;;22.73;36.33;153369.42;1686267;83;20193;-59
2022/09/07 07:31:02;;;;;;;;;;;;;;;22.72;35.78;153366.81;1694540;83;20202;-59
2022/09/07 07:33:33;;;;;;;;;;;;;;;22.53;36.15;153319.70;1696457;83;20206;-59
2022/09/07 07:36:11;;;;;;;;;;;;;;;22.50;36.62;153311.88;1689400;83;20187;-60
2022/09/07 07:38:39;;;;;;;;;;;;;;;22.54;36.85;153321.00;1677807;84;20193;-59
2022/09/07 07:41:07;;;;;;;;;;;;;;;22.42;37.01;153290.86;1662815;85;22059;-59
2022/09/07 07:43:34;;;;;;;;;;;;;;;22.33;37.20;153269.95;1679537;83;21387;-60
2022/09/07 07:46:01;;;;;;;;;;;;;;;22.44;37.12;153297.42;1681522;83;20175;-59
2022/09/07 07:48:28;;;;;;;;;;;;;;;22.46;36.90;153301.36;1677354;84;20953;-59
2022/09/07 07:50:58;;;;;;;;;;;;;;;22.44;37.30;153296.14;1676932;84;20188;-59
2022/09/07 07:53:26;;;;;;;;;;;;;;;22.49;36.98;153309.25;1674750;83;21151;-60
2022/09/07 07:55:53;;;;;;;;;;;;;;;22.27;36.99;153254.27;1680036;83;20179;-60
2022/09/07 07:58:20;;;;;;;;;;;;;;;22.15;37.24;153222.86;1674342;83;20172;-58
2022/09/07 08:00:47;;;;;;;;;;;;;;;22.30;36.72;153260.78;1673801;83;20899;-60
2022/09/07 08:03:14;;;;;;;;;;;;;;;22.43;36.22;153293.47;1679105;84;20542;-61
2022/09/07 08:05:41;;;;;;;;;;;;;;;22.39;36.21;153283.02;1677138;84;21247;-59
2022/09/07 08:08:10;;;;;;;;;;;;;;;22.33;36.50;153269.95;1676334;83;20181;-60
2022/09/07 08:10:38;;;;;;;;;;;;;;;22.16;36.94;153225.47;1668931;84;20457;-60
2022/09/07 08:13:05;;;;;;;;;;;;;;;22.05;37.58;153198.00;1673708;85;20171;-60
2022/09/07 08:15:43;;;;;;;;;;;;;;;22.12;37.57;153215.02;1666374;83;20190;-59
2022/09/07 08:18:11;;;;;;;;;;;;;;;22.10;36.39;153209.80;1678774;84;21091;-59
2022/09/07 08:20:39;;;;;;;;;;;;;;;22.05;36.33;153198.00;1675358;84;20277;-61
2022/09/07 08:23:06;;;;;;;;;;;;;;;22.19;36.46;153233.31;1684265;83;20183;-59
2022/09/07 08:25:33;;;;;;;;;;;;;;;22.37;36.76;153277.78;1673199;84;20222;-59
2022/09/07 08:28:01;;;;;;;;;;;;;;;22.49;36.49;153309.25;1675932;85;20179;-60
2022/09/07 08:30:29;;;;;;;;;;;;;;;22.52;36.34;153317.09;1664071;84;21888;-59
2022/09/07 08:32:56;;;;;;;;;;;;;;;22.56;36.20;153327.55;1665177;84;20177;-60
2022/09/07 08:35:41;;;;;;;;;;;;;;;22.65;35.48;153348.47;1676362;83;20536;-60
2022/09/07 08:38:09;;;;;;;;;;;;;;;22.56;35.60;153327.55;1664746;84;20192;-59
2022/09/07 08:40:36;;;;;;;;;;;;;;;22.60;35.92;153336.72;1675603;83;20625;-60
2022/09/07 08:43:30;;;;;;;;;;;;;;;22.56;36.20;153326.27;1676200;84;21750;-59
2022/09/07 08:46:00;;;;;;;;;;;;;;;22.53;36.64;153319.70;1636266;85;20187;-61
2022/09/07 08:48:30;;;;;;;;;;;;;;;22.61;35.84;153340.63;1633346;86;20546;-60
2022/09/07 08:51:06;;;;;;;;;;;;;;;22.66;35.18;153351.08;1633342;86;20837;-61
2022/09/07 08:53:33;;;;;;;;;;;;;;;22.74;35.66;153372.03;1664884;84;20448;-61
2022/09/07 08:56:01;;;;;;;;;;;;;;;22.72;36.53;153366.81;1654021;85;21227;-60
2022/09/07 08:58:35;;;;;;;;;;;;;;;22.72;36.90;153366.81;1649982;85;20350;-60
2022/09/07 09:01:03;;;;;;;;;;;;;;;22.81;36.47;153390.34;1696481;82;20129;-59
2022/09/07 09:03:35;;;;;;;;;;;;;;;22.66;36.33;153352.41;1641909;85;20179;-60
2022/09/07 09:06:19;;;;;;;;;;;;;;;22.60;36.61;153336.72;1678968;82;20181;-59
2022/09/07 09:09:04;;;;;;;;;;;;;;;22.50;37.34;153311.88;1680655;84;21248;-60
2022/09/07 09:11:43;;;;;;;;;;;;;;;22.32;37.59;153267.33;1695887;83;20170;-60
2022/09/07 09:14:28;;;;;;;;;;;;;;;22.26;36.82;153251.66;1696545;83;20435;-60
2022/09/07 09:17:08;;;;;;;;;;;;;;;22.00;37.75;153186.28;1695228;83;20222;-60
2022/09/07 09:19:47;;;;;;;;;;;;;;;21.96;38.36;153174.50;1699735;83;20194;-60
2022/09/07 09:22:19;;;;;;;;;;;;;;;22.04;38.35;153196.72;1672179;84;21157;-60
2022/09/07 09:24:47;;;;;;;;;;;;;;;22.03;38.26;153194.11;1683730;83;20175;-61
2022/09/07 09:27:14;;;;;;;;;;;;;;;21.98;37.90;153181.00;1697389;84;20237;-61
2022/09/07 09:29:41;;;;;;;;;;;;;;;21.97;37.65;153178.39;1682835;84;20192;-61
2022/09/07 09:32:32;;;;;;;;;;;;;;;22.00;37.69;153184.94;1676262;85;20833;-61
2022/09/07 09:35:00;;;;;;;;;;;;;;;21.94;38.22;153170.55;1685800;83;21172;-60
2022/09/07 09:37:37;;;;;;;;;;;;;;;21.94;38.61;153170.55;1699776;83;20174;-60
2022/09/07 09:40:08;;;;;;;;;;;;;;;21.93;38.75;153166.66;1694173;83;20178;-60
2022/09/07 09:42:35;;;;;;;;;;;;;;;21.87;39.06;153152.25;1697902;83;20118;-60
2022/09/07 09:45:04;;;;;;;;;;;;;;;21.96;39.42;153174.50;1695998;84;20172;-60
2022/09/07 09:47:32;;;;;;;;;;;;;;;22.16;39.47;153225.47;1694698;84;21597;-60
2022/09/07 09:50:05;;;;;;;;;;;;;;;22.37;39.76;153279.12;1696813;83;20388;-60
2022/09/07 09:52:34;;;;;;;;;;;;;;;22.56;39.50;153327.55;1674964;84;20192;-60
2022/09/07 09:55:01;;;;;;;;;;;;;;;22.58;38.72;153332.78;1680468;83;20953;-60
2022/09/07 09:57:49;;;;;;;;;;;;;;;22.53;38.60;153318.37;1680266;84;20183;-67
2022/09/07 10:00:18;;;;;;;;;;;;;;;22.46;38.96;153302.69;1674275;84;21263;-67
2022/09/07 10:03:06;;;;;;;;;;;;;;;22.34;39.62;153271.28;1645916;85;20347;-68
2022/09/07 10:05:36;;;;;;;;;;;;;;;22.25;39.86;153249.03;1643816;85;20477;-67
2022/09/07 10:08:05;;;;;;;;;;;;;;;22.24;40.03;153245.09;1669886;84;20201;-60
2022/09/07 10:10:32;;;;;;;;;;;;;;;22.29;39.80;153259.50;1683643;84;20207;-60
2022/09/07 10:12:59;;;;;;;;;;;;;;;22.30;39.58;153262.11;1661674;84;21232;-59
2022/09/07 10:15:34;;;;;;;;;;;;;;;22.21;39.56;153238.53;1673487;84;20560;-62
2022/09/07 10:18:04;;;;;;;;;;;;;;;22.13;38.98;153217.63;1683943;84;20175;-60
2022/09/07 10:20:34;;;;;;;;;;;;;;;22.04;38.73;153196.72;1677782;83;20151;-60
2022/09/07 10:23:01;;;;;;;;;;;;;;;21.99;38.82;153183.61;1691693;84;20444;-61
2022/09/07 10:25:31;;;;;;;;;;;;;;;21.99;38.99;153183.61;1703258;84;21140;-60
2022/09/07 10:28:14;;;;;;;;;;;;;;;22.15;38.23;153222.86;1706147;83;20196;-60
2022/09/07 10:30:59;;;;;;;;;;;;;;;22.25;38.15;153249.03;1690920;84;20141;-60
2022/09/07 10:33:39;;;;;;;;;;;;;;;22.23;37.84;153243.81;1706483;84;20204;-60
2022/09/07 10:36:21;;;;;;;;;;;;;;;22.14;37.68;153220.25;1702472;83;20187;-60
2022/09/07 10:38:51;;;;;;;;;;;;;;;21.91;37.54;153162.72;1692941;84;22091;-60
2022/09/07 10:41:17;;;;;;;;;;;;;;;21.87;37.61;153153.53;1699470;84;20220;-61
2022/09/07 10:43:47;;;;;;;;;;;;;;;21.85;37.59;153148.31;1694277;83;20219;-59
2022/09/07 10:46:23;;;;;;;;;;;;;;;21.90;37.13;153160.09;1693161;83;20280;-60
2022/09/07 10:49:00;;;;;;;;;;;;;;;21.85;36.55;153147.03;1691449;84;20181;-60
2022/09/07 10:51:36;;;;;;;;;;;;;;;21.68;36.62;153105.19;1687255;84;21145;-61
2022/09/07 10:54:26;;;;;;;;;;;;;;;21.61;37.38;153086.84;1689295;84;20183;-60
2022/09/07 10:57:20;;;;;;;;;;;;;;;21.45;37.70;153047.61;1691246;84;20233;-68
2022/09/07 11:00:11;;;;;;;;;;;;;;;21.37;37.73;153026.72;1689173;84;20219;-67
2022/09/07 11:03:09;;;;;;;;;;;;;;;21.42;36.77;153039.78;1689158;84;20624;-67
2022/09/07 11:05:39;;;;;;;;;;;;;;;21.47;36.82;153052.83;1689691;83;21341;-68
2022/09/07 11:08:13;;;;;;;;;;;;;;;21.57;36.55;153076.39;1684487;84;20259;-67
2022/09/07 11:11:12;;;;;;;;;;;;;;;21.61;36.68;153086.84;1689822;83;20292;-68
2022/09/07 11:13:41;;;;;;;;;;;;;;;21.69;37.01;153107.80;1691640;83;20192;-67
2022/09/07 11:16:14;;;;;;;;;;;;;;;21.77;37.65;153126.08;1693709;83;20151;-69
2022/09/07 11:19:02;;;;;;;;;;;;;;;21.81;37.38;153137.86;1696045;83;21125;-68
2022/09/07 11:21:36;;;;;;;;;;;;;;;21.79;36.78;153131.36;1695459;83;20269;-68
2022/09/07 11:24:09;;;;;;;;;;;;;;;21.69;37.30;153107.80;1690439;83;20298;-60
2022/09/07 11:26:44;;;;;;;;;;;;;;;21.63;37.55;153092.06;1695731;83;20913;-60
2022/09/07 11:29:14;;;;;;;;;;;;;;;21.57;37.91;153076.39;1692164;83;20188;-60
2022/09/07 11:32:00;;;;;;;;;;;;;;;21.59;37.77;153081.63;1691156;83;20536;-62
2022/09/07 11:34:42;;;;;;;;;;;;;;;21.52;38.08;153063.28;1690859;84;20198;-61
2022/09/07 11:37:22;;;;;;;;;;;;;;;21.55;37.95;153072.45;1693829;84;20421;-60
2022/09/07 11:40:04;;;;;;;;;;;;;;;21.64;37.93;153093.34;1690825;84;20229;-60
2022/09/07 11:42:40;;;;;;;;;;;;;;;21.75;38.31;153123.47;1691518;83;20258;-61
2022/09/07 11:45:22;;;;;;;;;;;;;;;21.91;38.37;153162.72;1691886;83;21801;-59
2022/09/07 11:47:53;;;;;;;;;;;;;;;21.89;37.96;153157.48;1691251;84;20178;-60
2022/09/07 11:50:22;;;;;;;;;;;;;;;21.75;38.15;153122.19;1686355;83;20191;-60
2022/09/07 11:52:51;;;;;;;;;;;;;;;21.63;38.35;153090.73;1691019;84;20184;-60
2022/09/07 11:55:20;;;;;;;;;;;;;;;21.58;38.61;153079.00;1682321;84;20233;-60
2022/09/07 11:57:56;;;;;;;;;;;;;;;21.58;38.60;153079.00;1665134;84;21272;-60
2022/09/07 12:00:23;;;;;;;;;;;;;;;21.52;38.83;153063.28;1665613;84;20468;-60
2022/09/07 12:03:06;;;;;;;;;;;;;;;21.45;39.51;153046.33;1671607;84;20165;-60
2022/09/07 12:05:51;;;;;;;;;;;;;;;21.59;39.29;153082.91;1644794;84;20624;-61
2022/09/07 12:08:47;;;;;;;;;;;;;;;21.77;39.16;153126.08;1616371;84;20234;-61
2022/09/07 12:11:40;;;;;;;;;;;;;;;21.94;38.95;153169.27;1666492;84;21281;-60
2022/09/07 12:14:29;;;;;;;;;;;;;;;22.06;38.73;153199.34;1663719;84;20327;-61
2022/09/07 12:17:04;;;;;;;;;;;;;;;21.98;38.58;153181.00;1664456;84;20494;-60
2022/09/07 12:19:31;;;;;;;;;;;;;;;21.84;38.74;153145.70;1674798;84;20163;-60
2022/09/07 12:21:58;;;;;;;;;;;;;;;21.76;38.44;153124.80;1660781;84;20173;-61
2022/09/07 12:24:34;;;;;;;;;;;;;;;21.83;38.19;153143.09;1663944;84;21275;-61
2022/09/07 12:27:06;;;;;;;;;;;;;;;21.87;38.11;153152.25;1659698;84;20438;-60
2022/09/07 12:29:31;;;;;;;;;;;;;;;21.87;38.63;153152.25;1665465;84;20216;-60
2022/09/07 12:31:59;;;;;;;;;;;;;;;21.96;38.76;153175.78;1669330;84;20192;-60
2022/09/07 12:34:35;;;;;;;;;;;;;;;22.00;38.95;153184.94;1673156;84;20193;-60
2022/09/07 12:37:27;;;;;;;;;;;;;;;22.06;38.65;153199.34;1663000;84;21243;-60
2022/09/07 12:40:31;;;;;;;;;;;;;;;22.07;38.49;153203.23;1669381;84;20478;-62
2022/09/07 12:43:16;;;;;;;;;;;;;;;22.23;38.46;153243.81;1621916;87;20244;-60
2022/09/07 12:45:46;;;;;;;;;;;;;;;22.17;38.83;153228.09;1661956;84;20506;-60
2022/09/07 12:48:20;;;;;;;;;;;;;;;22.12;38.72;153216.34;1674625;84;20313;-60
2022/09/07 12:50:57;;;;;;;;;;;;;;;22.04;39.01;153195.39;1673124;84;21206;-61
2022/09/07 12:53:33;;;;;;;;;;;;;;;21.94;38.84;153170.55;1663369;84;20433;-62
2022/09/07 12:56:10;;;;;;;;;;;;;;;21.79;39.06;153132.64;1661824;84;20220;-60
2022/09/07 12:58:46;;;;;;;;;;;;;;;21.74;39.17;153120.86;1670948;84;20198;-61
2022/09/07 13:01:23;;;;;;;;;;;;;;;21.73;39.38;153118.25;1663385;85;20165;-60